ID Time Temp Humidity Light PM2.5 PM10 Voltage Extra Firmware Position Fcnt Gateways Distance RSSI LSNR Radiosettings
494 2020-01-23 05:25:03 4.3125°C 12.5625% 3.34V v2 51.5564 / 5.0676 16869 eui-aa555a0000088184 - -99 11.2 868.1Mhz, SF9BW125, 4/5CR
eui-aa555a0000088183 - -114 0.8 868.1Mhz, SF9BW125, 4/5CR
494 2020-01-23 05:09:35 4.3125°C 13.8125% 3.34V v2 51.5564 / 5.0676 16868 eui-aa555a0000088184 - -94 6.5 868.5Mhz, SF9BW125, 4/5CR
eui-aa555a0000088183 - -101 -11.5 868.5Mhz, SF9BW125, 4/5CR
494 2020-01-23 04:38:41 4.25°C 16.3125% 3.34V v2 51.5564 / 5.0676 16866 eui-aa555a0000088184 - -96 11.2 868.1Mhz, SF9BW125, 4/5CR
eui-aa555a0000088183 - -115 0.2 868.1Mhz, SF9BW125, 4/5CR
494 2020-01-23 04:23:14 4.1875°C 16.75% 3.34V v2 51.5564 / 5.0676 16865 eui-aa555a0000088184 - -93 9 867.5Mhz, SF9BW125, 4/5CR
eui-aa555a0000088183 - -111 0.8 867.5Mhz, SF9BW125, 4/5CR
494 2020-01-23 04:07:47 4.125°C 17.375% 3.34V v2 51.5564 / 5.0676 16864 eui-aa555a0000088184 - -93 0.2 868.5Mhz, SF9BW125, 4/5CR
494 2020-01-23 03:36:53 4.0625°C 17.75% 3.34V v2 51.5564 / 5.0676 16862 eui-aa555a0000088184 - -94 4.5 868.3Mhz, SF9BW125, 4/5CR
494 2020-01-23 03:21:26 3.9375°C 17.5625% 3.34V v2 51.5564 / 5.0676 16861 eui-aa555a0000088184 - -99 11.8 867.1Mhz, SF9BW125, 4/5CR
eui-aa555a0000088183 - -112 4.8 867.1Mhz, SF9BW125, 4/5CR
494 2020-01-23 03:05:59 3.9375°C 17.5625% 3.34V v2 51.5564 / 5.0676 16860 eui-aa555a0000088184 - -97 12.2 868.1Mhz, SF9BW125, 4/5CR
eui-aa555a0000088183 - -109 1 868.1Mhz, SF9BW125, 4/5CR
494 2020-01-23 02:50:31 3.9375°C 18.125% 3.34V v2 51.5564 / 5.0676 16859 eui-aa555a0000088184 - -97 12 867.9Mhz, SF9BW125, 4/5CR
eui-aa555a0000088183 - -114 2.2 867.9Mhz, SF9BW125, 4/5CR
494 2020-01-23 02:35:04 3.875°C 17.5625% 3.34V v2 51.5564 / 5.0676 16858 eui-aa555a0000088184 - -96 5.2 868.5Mhz, SF9BW125, 4/5CR
494 2020-01-23 02:19:37 3.8125°C 16.0625% 3.34V v2 51.5564 / 5.0676 16857 eui-aa555a0000088184 - -93 11.2 867.7Mhz, SF9BW125, 4/5CR
eui-aa555a0000088183 - -114 3.8 867.7Mhz, SF9BW125, 4/5CR
494 2020-01-23 01:48:43 3.8125°C 12.8125% 3.34V v2 51.5564 / 5.0676 16855 eui-aa555a0000088184 - -99 12.2 868.1Mhz, SF9BW125, 4/5CR
eui-aa555a0000088183 - -109 2 868.1Mhz, SF9BW125, 4/5CR
494 2020-01-23 01:33:24 3.6875°C 10.375% 3.34V v2 51.5564 / 5.0676 16854 eui-aa555a0000088184 - -95 5.2 868.5Mhz, SF9BW125, 4/5CR
eui-aa555a0000088183 - -100 -12.8 868.5Mhz, SF9BW125, 4/5CR
494 2020-01-23 01:17:50 3.6875°C 10.25% 3.34V v2 51.5564 / 5.0676 16853 eui-aa555a0000088184 - -77 -6 868.3Mhz, SF9BW125, 4/5CR
494 2020-01-23 01:02:23 3.6875°C 12.5625% 3.34V v2 51.5564 / 5.0676 16852 eui-aa555a0000088184 - -97 11.5 867.1Mhz, SF9BW125, 4/5CR
eui-aa555a0000088183 - -114 5 867.1Mhz, SF9BW125, 4/5CR
494 2020-01-23 00:46:55 4°C 17.6875% 3.34V v2 51.5564 / 5.0676 16851 eui-aa555a0000088184 - -95 5 868.1Mhz, SF9BW125, 4/5CR
494 2020-01-23 00:31:28 4.1875°C 20.875% 3.34V v2 51.5564 / 5.0676 16850 eui-aa555a0000088184 - -97 11.2 867.9Mhz, SF9BW125, 4/5CR
eui-aa555a0000088183 - -117 2.5 867.9Mhz, SF9BW125, 4/5CR
494 2020-01-23 00:16:01 4.125°C 17.625% 3.34V v2 51.5564 / 5.0676 16849 eui-aa555a0000088184 - -96 5.2 868.5Mhz, SF9BW125, 4/5CR
494 2020-01-23 00:00:34 4°C 10.5% 3.34V v2 51.5564 / 5.0676 16848 eui-aa555a0000088184 - -101 10.8 867.7Mhz, SF9BW125, 4/5CR
eui-aa555a0000088183 - -114 3.2 867.7Mhz, SF9BW125, 4/5CR
494 2020-01-22 23:45:07 3.875°C 2.0625% 3.34V v2 51.5564 / 5.0676 16847 eui-aa555a0000088184 - -96 4.8 868.3Mhz, SF9BW125, 4/5CR
494 2020-01-22 23:29:40 3.9375°C -3.0625% 3.34V v2 51.5564 / 5.0676 16846 eui-aa555a0000088184 - -97 8.5 867.5Mhz, SF9BW125, 4/5CR
eui-aa555a0000088183 - -113 -3.5 867.5Mhz, SF9BW125, 4/5CR
494 2020-01-22 23:14:13 4.3125°C -4.9375% 3.34V v2 51.5564 / 5.0676 16845 eui-aa555a0000088184 - -99 11 868.1Mhz, SF9BW125, 4/5CR
eui-aa555a0000088183 - -113 1.2 868.1Mhz, SF9BW125, 4/5CR
494 2020-01-22 22:58:45 4.5°C -4.3125% 3.34V v2 51.5564 / 5.0676 16844 eui-aa555a0000088184 - -95 11.8 867.3Mhz, SF9BW125, 4/5CR
eui-aa555a0000088183 - -113 4.8 867.3Mhz, SF9BW125, 4/5CR
494 2020-01-22 22:43:18 4.5625°C -2.375% 3.34V v2 51.5564 / 5.0676 16843 eui-aa555a0000088184 - -95 6.2 868.5Mhz, SF9BW125, 4/5CR
eui-aa555a0000088183 - -108 -8.5 868.5Mhz, SF9BW125, 4/5CR
494 2020-01-22 22:12:32 4.5625°C 0.125% 3.34V v2 51.5564 / 5.0676 16841 eui-aa555a0000088184 - -99 11.8 868.1Mhz, SF9BW125, 4/5CR
eui-aa555a0000088183 - -113 -1.5 868.1Mhz, SF9BW125, 4/5CR
494 2020-01-22 21:56:57 4.5625°C -0.4375% 3.34V v2 51.5564 / 5.0676 16840 eui-aa555a0000088184 - -93 -3.2 868.5Mhz, SF9BW125, 4/5CR
494 2020-01-22 21:41:29 4.5625°C -0.25% 3.34V v2 51.5564 / 5.0676 16839 eui-aa555a0000088184 - -97 11.2 867.7Mhz, SF9BW125, 4/5CR
eui-aa555a0000088183 - -112 3.2 867.7Mhz, SF9BW125, 4/5CR
494 2020-01-22 21:26:02 4.5°C 0.0625% 3.34V v2 51.5564 / 5.0676 16838 eui-aa555a0000088184 - -97 10.5 868.3Mhz, SF9BW125, 4/5CR
494 2020-01-22 21:10:35 4.5°C 0% 3.34V v2 51.5564 / 5.0676 16837 eui-aa555a0000088184 - -93 9.5 867.5Mhz, SF9BW125, 4/5CR
eui-aa555a0000088183 - -109 -2.5 867.5Mhz, SF9BW125, 4/5CR
494 2020-01-22 20:55:08 4.5°C 0% 3.34V v2 51.5564 / 5.0676 16836 eui-aa555a0000088184 - -96 11.2 868.1Mhz, SF9BW125, 4/5CR
eui-aa555a0000088183 - -115 -0.5 868.1Mhz, SF9BW125, 4/5CR
494 2020-01-22 20:39:41 4.5°C 0.0625% 3.34V v2 51.5564 / 5.0676 16835 eui-aa555a0000088184 - -101 10 867.3Mhz, SF9BW125, 4/5CR
eui-aa555a0000088183 - -115 1.5 867.3Mhz, SF9BW125, 4/5CR
494 2020-01-22 20:24:13 4.5°C 0.25% 3.34V v2 51.5564 / 5.0676 16834 eui-aa555a0000088184 - -88 6.8 868.5Mhz, SF9BW125, 4/5CR
494 2020-01-22 20:08:46 4.4375°C 0.3125% 3.34V v2 51.5564 / 5.0676 16833 eui-aa555a0000088184 - -96 11.8 867.1Mhz, SF9BW125, 4/5CR
eui-aa555a0000088183 - -114 3.8 867.1Mhz, SF9BW125, 4/5CR
494 2020-01-22 19:53:19 4.4375°C 0.375% 3.34V v2 51.5564 / 5.0676 16832 eui-aa555a0000088184 - -97 8.5 868.3Mhz, SF9BW125, 4/5CR
494 2020-01-22 19:37:52 4.375°C -0.25% 3.34V v2 51.5564 / 5.0676 16831 eui-aa555a0000088184 - -95 11.2 867.9Mhz, SF9BW125, 4/5CR
eui-aa555a0000088183 - -115 3.2 867.9Mhz, SF9BW125, 4/5CR
494 2020-01-22 18:51:38 4.3125°C -0.25% 3.34V v2 51.5564 / 5.0676 16828 eui-aa555a0000088184 - -95 8.2 868.3Mhz, SF9BW125, 4/5CR
494 2020-01-22 18:36:03 4.3125°C -0.3125% 3.34V v2 51.5564 / 5.0676 16827 eui-aa555a0000088184 - -93 -2.5 868.1Mhz, SF9BW125, 4/5CR
494 2020-01-22 18:20:36 4.3125°C -0.5625% 3.34V v2 51.5564 / 5.0676 16826 eui-aa555a0000088184 - -95 9.2 867.3Mhz, SF9BW125, 4/5CR
eui-aa555a0000088183 - -113 3.2 867.3Mhz, SF9BW125, 4/5CR
494 2020-01-22 18:05:09 4.25°C -0.625% 3.34V v2 51.5564 / 5.0676 16825 eui-aa555a0000088184 - -97 -4 868.5Mhz, SF9BW125, 4/5CR
494 2020-01-22 17:49:41 4.25°C -0.625% 3.34V v2 51.5564 / 5.0676 16824 eui-aa555a0000088184 - -95 11.2 867.1Mhz, SF9BW125, 4/5CR
eui-aa555a0000088183 - -115 4.5 867.1Mhz, SF9BW125, 4/5CR
494 2020-01-22 17:34:15 4.25°C -1.375% 3.34V v2 51.5564 / 5.0676 16823 eui-aa555a0000088184 - -93 10.5 868.3Mhz, SF9BW125, 4/5CR
eui-aa555a0000088183 - -109 -6.2 868.3Mhz, SF9BW125, 4/5CR
494 2020-01-22 17:18:47 4.25°C -1.1875% 3.34V v2 51.5564 / 5.0676 16822 eui-aa555a0000088184 - -94 11.5 867.9Mhz, SF9BW125, 4/5CR
eui-aa555a0000088183 - -114 2.2 867.9Mhz, SF9BW125, 4/5CR
494 2020-01-22 17:03:20 4.25°C -0.4375% 3.34V v2 51.5564 / 5.0676 16821 eui-aa555a0000088184 - -94 12 868.1Mhz, SF9BW125, 4/5CR
eui-aa555a0000088183 - -106 1 868.1Mhz, SF9BW125, 4/5CR
494 2020-01-22 16:47:53 4.25°C 0% 3.34V v2 51.5564 / 5.0676 16820 eui-aa555a0000088184 - -96 11.2 867.7Mhz, SF9BW125, 4/5CR
eui-aa555a0000088183 - -111 4 867.7Mhz, SF9BW125, 4/5CR
494 2020-01-22 16:32:26 4.1875°C 0.125% 3.34V v2 51.5564 / 5.0676 16819 eui-aa555a0000088184 - -97 5.8 868.5Mhz, SF9BW125, 4/5CR
eui-aa555a0000088183 - -107 -10 868.5Mhz, SF9BW125, 4/5CR
494 2020-01-22 16:16:59 4.1875°C 1.0625% 3.34V v2 51.5564 / 5.0676 16818 eui-aa555a0000088184 - -97 8.2 867.5Mhz, SF9BW125, 4/5CR
eui-aa555a0000088183 - -109 -5.5 867.5Mhz, SF9BW125, 4/5CR
494 2020-01-22 16:01:32 4.1875°C 1.375% 3.34V v2 51.5564 / 5.0676 16817 eui-aa555a0000088184 - -93 0 868.3Mhz, SF9BW125, 4/5CR
494 2020-01-22 15:46:04 4.125°C 1.5625% 3.34V v2 51.5564 / 5.0676 16816 eui-aa555a0000088184 - -96 8 868.1Mhz, SF9BW125, 4/5CR
494 2020-01-22 15:30:45 4.125°C 2.25% 3.34V v2 51.5564 / 5.0676 16815 eui-aa555a0000088184 - -94 2.8 868.5Mhz, SF9BW125, 4/5CR
494 2020-01-22 15:15:10 4.1875°C 3.5625% 3.34V v2 51.5564 / 5.0676 16814 eui-aa555a0000088184 - -97 9.2 868.3Mhz, SF9BW125, 4/5CR

Message count: 50

Node count: 1

Messages per node

Number of messages in list aboveNodes
50494

Statistics per gateway

GatewayNumber of messagesNumber of nodesNodes
eui-aa555a0000088184 (filter)501494
eui-aa555a0000088183 (filter)321494

Filter by dataset